Saigon Express — VRBT7 — position and weather

sailwx.info

Track history (hours):
 
Tides and Currents Weather Stations Pressure Air Temp Water Temp Dewpoint Dewpoint Depression Visibility Wind Speed Wind Dir Waves Ship Positions

Saigon Express

Last reported at 2015-Mar-27 22:33 UTC. Time now 2015-Mar-28 16:03 UTC.
Position N 37°08' E 001°54'.

Length 260 m; draft 11.3 m.

Type: Ship (hazmat cat A). MMSI: 477106800.

Date/timePositionNaut miles runAvg speedWind from/ knotsBaromVisibWave heightAir tempDewpointWater temp
2015-Mar-27 22:33N 37°08' E 001°54'1919.0
2015-Mar-27 21:33N 37°12' E 002°18'53117.7
2015-Mar-26 15:30N 36°44' E 013°21'2119.0
2015-Mar-26 14:23N 36°38' E 013°46'1718.9
2015-Mar-26 13:29N 36°32' E 014°06'1819.1
2015-Mar-26 12:34N 36°27' E 014°27'91218.6
2015-Mar-24 11:33N 31°28' E 031°45'0 0.0
2015-Mar-24 10:30N 31°28' E 031°45'0 0.0
2015-Mar-24 09:30N 31°28' E 031°45'0 0.0
2015-Mar-24 08:24N 31°28' E 031°45'0 0.0
2015-Mar-24 04:12N 31°28' E 031°45'0 0.0
2015-Mar-24 03:30N 31°28' E 031°45'5 4.7
2015-Mar-24 02:32N 31°32' E 031°46'  
Track history (hours):
 
Tides and Currents Weather Stations Pressure Air Temp Water Temp Dewpoint Dewpoint Depression Visibility Wind Speed Wind Dir Waves Ship Positions

Saigon Express

Last reported at 2015-Mar-27 22:33 UTC. Time now 2015-Mar-28 16:03 UTC.
Position N 37°08' E 001°54'.

Length 260 m; draft 11.3 m.

Type: Ship (hazmat cat A). MMSI: 477106800.

Date/timePositionNaut miles runAvg speedWind from/ knotsBaromVisibWave heightAir tempDewpointWater temp
2015-Mar-27 22:33N 37°08' E 001°54'1919.0
2015-Mar-27 21:33N 37°12' E 002°18'53117.7
2015-Mar-26 15:30N 36°44' E 013°21'2119.0
2015-Mar-26 14:23N 36°38' E 013°46'1718.9
2015-Mar-26 13:29N 36°32' E 014°06'1819.1
2015-Mar-26 12:34N 36°27' E 014°27'91218.6
2015-Mar-24 11:33N 31°28' E 031°45'0 0.0
2015-Mar-24 10:30N 31°28' E 031°45'0 0.0
2015-Mar-24 09:30N 31°28' E 031°45'0 0.0
2015-Mar-24 08:24N 31°28' E 031°45'0 0.0
2015-Mar-24 04:12N 31°28' E 031°45'0 0.0
2015-Mar-24 03:30N 31°28' E 031°45'5 4.7
2015-Mar-24 02:32N 31°32' E 031°46'  

Dump ship's entire track history